Time;durP1;ratioP1;P1;durP2;ratioP2;P2;SDS_P1;SDS_P2;PMS_P1;PMS_P2;Temp;Humidity;BMP_temperature;BMP_pressure;BME280_temperature;BME280_humidity;BME280_pressure;Samples;Min_cycle;Max_cycle;Signal;HPM_P1;HPM_P2
2022/08/15 00:00:43;;;;;;;14.05;11.82;;;22.50;99.90;;;;;;5091854;28;20044;-73
2022/08/15 00:03:24;;;;;;;11.50;10.07;;;22.50;99.90;;;;;;5093525;28;20453;-73
2022/08/15 00:05:50;;;;;;;12.35;11.10;;;22.30;99.90;;;;;;5093456;28;20044;-74
2022/08/15 00:08:17;;;;;;;12.93;11.50;;;22.50;99.90;;;;;;5093268;28;20048;-74
2022/08/15 00:10:45;;;;;;;15.07;12.13;;;22.50;99.90;;;;;;5093187;28;20404;-74
2022/08/15 00:13:21;;;;;;;12.30;10.85;;;22.20;99.90;;;;;;5093069;28;20583;-74
2022/08/15 00:15:49;;;;;;;14.88;11.38;;;22.20;99.90;;;;;;5093286;28;20109;-73
2022/08/15 00:18:16;;;;;;;14.55;10.75;;;22.40;99.90;;;;;;5093211;28;20652;-74
2022/08/15 00:20:43;;;;;;;14.68;11.32;;;22.40;99.90;;;;;;5093140;28;20083;-74
2022/08/15 00:23:11;;;;;;;13.55;10.65;;;22.10;99.90;;;;;;5093111;28;20051;-74
2022/08/15 00:25:37;;;;;;;13.25;11.60;;;22.00;99.90;;;;;;5092889;28;20047;-74
2022/08/15 00:28:05;;;;;;;14.23;11.98;;;22.20;99.90;;;;;;5092764;28;20046;-74
2022/08/15 00:30:35;;;;;;;12.15;10.68;;;21.80;99.90;;;;;;5092553;28;20131;-74
2022/08/15 00:33:01;;;;;;;15.75;12.07;;;22.10;99.90;;;;;;5092771;28;20067;-73
2022/08/15 00:35:36;;;;;;;15.23;12.13;;;22.20;99.90;;;;;;5092753;28;20056;-75
2022/08/15 00:38:07;;;;;;;11.85;9.75;;;22.10;99.90;;;;;;5092899;28;20193;-74
2022/08/15 00:41:39;;;;;;;14.27;11.27;;;22.10;99.90;;;;;;5092494;28;20112;-74
2022/08/15 00:43:19;;;;;;;;;;;21.90;99.90;;;;;;5092930;28;20502;-73
2022/08/15 00:45:46;;;;;;;13.17;10.70;;;22.00;99.90;;;;;;5091190;28;19927;-74
2022/08/15 00:50:55;;;;;;;15.13;9.85;;;21.70;99.90;;;;;;5092418;28;20143;-74
2022/08/15 00:53:22;;;;;;;12.52;11.23;;;21.70;99.90;;;;;;5092622;28;20135;-75
2022/08/15 00:55:48;;;;;;;16.17;10.30;;;22.00;99.90;;;;;;5092386;28;20040;-74
2022/08/15 00:58:14;;;;;;;15.88;10.65;;;21.80;99.90;;;;;;5092495;28;20493;-74
2022/08/15 01:00:45;;;;;;;13.38;10.48;;;21.90;99.90;;;;;;5092073;28;20480;-73
2022/08/15 01:03:20;;;;;;;14.13;12.02;;;22.00;99.90;;;;;;5092278;28;20436;-73
2022/08/15 01:05:49;;;;;;;16.52;12.23;;;21.80;99.90;;;;;;5089189;28;20051;-73
2022/08/15 01:08:17;;;;;;;13.85;11.73;;;21.70;99.90;;;;;;5072029;28;20048;-74
2022/08/15 01:10:44;;;;;;;13.95;12.10;;;21.80;99.90;;;;;;5071659;28;20048;-74
2022/08/15 01:13:10;;;;;;;19.42;13.27;;;21.50;99.90;;;;;;5070263;28;20048;-73
2022/08/15 01:15:37;;;;;;;14.70;12.18;;;21.50;99.90;;;;;;5071785;28;20135;-74
2022/08/15 01:18:03;;;;;;;17.17;12.45;;;21.50;99.90;;;;;;5071314;28;20048;-72
2022/08/15 01:20:32;;;;;;;16.45;12.65;;;21.70;99.90;;;;;;5070964;28;20446;-73
2022/08/15 01:23:26;;;;;;;15.90;12.68;;;21.80;99.90;;;;;;5071722;28;20044;-72
2022/08/15 01:25:57;;;;;;;13.95;12.55;;;21.80;99.90;;;;;;5070760;28;20499;-73
2022/08/15 01:28:34;;;;;;;15.07;12.85;;;21.60;99.90;;;;;;5071471;28;20468;-73
2022/08/15 01:31:08;;;;;;;19.27;12.93;;;21.50;99.90;;;;;;5076276;28;20499;-72
2022/08/15 01:33:45;;;;;;;16.13;13.43;;;21.50;99.90;;;;;;5071667;28;20096;-74
2022/08/15 01:36:13;;;;;;;14.60;13.10;;;21.70;99.90;;;;;;5071575;28;20408;-74
2022/08/15 01:38:48;;;;;;;14.60;13.00;;;21.60;99.90;;;;;;5071649;28;20036;-73
2022/08/15 01:41:50;;;;;;;14.52;12.98;;;21.60;99.90;;;;;;5071608;28;20045;-74
2022/08/15 01:44:35;;;;;;;15.40;12.98;;;21.60;99.90;;;;;;5071380;28;20149;-74
2022/08/15 01:47:18;;;;;;;14.55;12.93;;;21.60;99.90;;;;;;5071375;28;20486;-74
2022/08/15 01:50:08;;;;;;;14.63;12.95;;;21.40;99.90;;;;;;5086052;28;20078;-73
2022/08/15 01:52:40;;;;;;;14.13;12.70;;;21.30;99.90;;;;;;5090670;28;20044;-74
2022/08/15 01:55:07;;;;;;;15.10;13.50;;;21.60;99.90;;;;;;5090468;28;20131;-73
2022/08/15 01:57:33;;;;;;;14.65;13.18;;;21.20;99.90;;;;;;5091286;28;20094;-73
2022/08/15 02:00:00;;;;;;;15.60;13.65;;;21.40;99.90;;;;;;5077746;28;20088;-73
2022/08/15 02:02:27;;;;;;;14.50;12.80;;;21.30;99.90;;;;;;5071414;28;20060;-74
2022/08/15 02:04:54;;;;;;;15.15;13.65;;;21.50;99.90;;;;;;5071404;28;20063;-73
2022/08/15 02:07:24;;;;;;;16.92;14.48;;;21.30;99.90;;;;;;5071654;28;20048;-73
2022/08/15 02:09:50;;;;;;;15.93;14.15;;;21.30;99.90;;;;;;5071518;28;20109;-74
2022/08/15 02:12:20;;;;;;;19.58;14.65;;;21.20;99.90;;;;;;5071085;28;20072;-73
2022/08/15 02:14:46;;;;;;;16.08;14.40;;;21.10;99.90;;;;;;5071383;28;20041;-73
2022/08/15 02:17:13;;;;;;;16.08;14.32;;;21.30;99.90;;;;;;5070238;28;20060;-74
2022/08/15 02:19:41;;;;;;;18.48;14.68;;;20.80;99.90;;;;;;5071176;28;20109;-73
2022/08/15 02:22:11;;;;;;;20.10;15.75;;;21.00;99.90;;;;;;5071191;28;20105;-74
2022/08/15 02:24:38;;;;;;;20.27;15.80;;;21.10;99.90;;;;;;5074167;28;20036;-73
2022/08/15 02:27:04;;;;;;;19.45;14.82;;;21.00;99.90;;;;;;5074517;28;20040;-73
2022/08/15 02:29:31;;;;;;;18.27;15.05;;;21.00;99.90;;;;;;5075007;28;20097;-73
2022/08/15 02:32:12;;;;;;;18.23;16.20;;;21.10;99.90;;;;;;5074705;28;20045;-73
2022/08/15 02:34:45;;;;;;;18.98;14.80;;;21.10;99.90;;;;;;5074686;28;20060;-73
2022/08/15 02:37:18;;;;;;;18.02;15.15;;;21.40;99.90;;;;;;5073640;28;20483;-73
2022/08/15 02:39:48;;;;;;;17.42;15.52;;;21.20;99.90;;;;;;5074922;28;20130;-73
2022/08/15 02:42:16;;;;;;;18.63;15.18;;;21.30;99.90;;;;;;5074641;28;20048;-73
2022/08/15 02:44:43;;;;;;;17.98;16.17;;;21.00;99.90;;;;;;5074489;28;20045;-73
2022/08/15 02:47:14;;;;;;;20.05;14.88;;;21.30;99.90;;;;;;5074628;28;20063;-73
2022/08/15 02:49:42;;;;;;;18.02;15.13;;;21.20;99.90;;;;;;5089502;28;20055;-74
2022/08/15 02:52:08;;;;;;;20.48;16.77;;;21.50;99.90;;;;;;5094862;28;20082;-73
2022/08/15 02:54:35;;;;;;;22.05;17.45;;;21.30;99.90;;;;;;5094458;28;20450;-73
2022/08/15 02:57:01;;;;;;;19.67;17.02;;;21.20;99.90;;;;;;5094573;28;20048;-72
2022/08/15 02:59:28;;;;;;;19.67;17.60;;;21.20;99.90;;;;;;5094688;28;20140;-72
2022/08/15 03:01:56;;;;;;;19.35;17.33;;;21.00;99.90;;;;;;5093529;28;20052;-73
2022/08/15 03:04:23;;;;;;;20.65;17.77;;;20.90;99.90;;;;;;5094526;28;20044;-73
2022/08/15 03:06:53;;;;;;;19.13;17.02;;;21.10;99.90;;;;;;5094265;28;20147;-73
2022/08/15 03:09:20;;;;;;;20.02;18.02;;;21.00;99.90;;;;;;5094331;28;20040;-73
2022/08/15 03:11:46;;;;;;;19.85;17.70;;;21.10;99.90;;;;;;5094312;28;20044;-72
2022/08/15 03:14:16;;;;;;;23.60;18.63;;;21.10;99.90;;;;;;5094316;28;20044;-73
2022/08/15 03:16:44;;;;;;;23.52;18.00;;;20.80;99.90;;;;;;5090810;28;20052;-74
2022/08/15 03:19:16;;;;;;;19.52;17.42;;;21.00;99.90;;;;;;5073757;28;20544;-73
2022/08/15 03:21:43;;;;;;;22.42;17.38;;;20.60;99.90;;;;;;5074197;28;20048;-73
2022/08/15 03:24:10;;;;;;;20.38;16.27;;;20.90;99.90;;;;;;5073610;28;20071;-73
2022/08/15 03:26:36;;;;;;;21.85;17.38;;;20.80;99.90;;;;;;5074046;28;20044;-70
2022/08/15 03:29:04;;;;;;;19.40;16.98;;;20.90;99.90;;;;;;5073762;28;20830;-73
2022/08/15 03:31:32;;;;;;;18.98;16.42;;;21.30;99.90;;;;;;5073788;28;20048;-73
2022/08/15 03:34:01;;;;;;;21.15;16.90;;;21.00;99.90;;;;;;5073009;28;20167;-73
2022/08/15 03:36:27;;;;;;;21.10;17.02;;;20.90;99.90;;;;;;5073733;28;20075;-73
2022/08/15 03:38:52;;;;;;;18.42;16.08;;;21.10;99.90;;;;;;5089129;28;20496;-73
2022/08/15 03:41:19;;;;;;;17.95;15.88;;;21.30;99.90;;;;;;5089405;28;20044;-73
2022/08/15 03:43:46;;;;;;;21.58;16.75;;;21.20;99.90;;;;;;5073619;28;20045;-73
2022/08/15 03:46:18;;;;;;;19.02;17.00;;;21.50;99.90;;;;;;5073403;28;20143;-73
2022/08/15 03:48:50;;;;;;;19.92;17.25;;;21.00;99.90;;;;;;5080898;28;20036;-73
2022/08/15 03:51:18;;;;;;;21.73;17.85;;;21.10;99.90;;;;;;5079098;28;20496;-72
2022/08/15 03:53:48;;;;;;;20.23;17.77;;;21.00;99.90;;;;;;5073047;28;20049;-74
2022/08/15 03:56:18;;;;;;;20.52;18.25;;;21.10;99.90;;;;;;5073688;28;20056;-72
2022/08/15 03:58:44;;;;;;;19.17;17.27;;;21.50;99.90;;;;;;5073422;28;20052;-73
2022/08/15 04:01:17;;;;;;;19.92;17.85;;;21.20;99.90;;;;;;5073467;28;20056;-72
2022/08/15 04:03:44;;;;;;;20.08;17.55;;;21.20;99.90;;;;;;5073297;28;20055;-72
2022/08/15 04:06:12;;;;;;;19.35;16.92;;;21.50;99.90;;;;;;5071333;28;20127;-72
2022/08/15 04:08:38;;;;;;;21.35;16.90;;;21.40;99.90;;;;;;5070727;28;20462;-73
2022/08/15 04:11:06;;;;;;;18.75;16.83;;;21.20;99.90;;;;;;5070736;28;20087;-74
2022/08/15 04:13:32;;;;;;;19.77;17.27;;;20.90;99.90;;;;;;5073396;28;20048;-74
2022/08/15 04:16:00;;;;;;;19.13;17.10;;;21.20;99.90;;;;;;5072878;28;20036;-73
2022/08/15 04:18:27;;;;;;;20.92;16.48;;;21.30;99.90;;;;;;5072956;28;20054;-73
2022/08/15 04:20:58;;;;;;;21.95;17.67;;;21.60;99.90;;;;;;5072863;28;20052;-73
2022/08/15 04:23:24;;;;;;;19.25;17.17;;;21.40;99.90;;;;;;5072541;28;20056;-73
2022/08/15 04:25:51;;;;;;;20.60;16.95;;;21.30;99.90;;;;;;5072616;28;20127;-73
2022/08/15 04:28:18;;;;;;;28.92;17.70;;;21.10;99.90;;;;;;5072647;28;20051;-73
2022/08/15 04:30:47;;;;;;;22.27;16.02;;;21.10;99.90;;;;;;5072778;28;20063;-73
2022/08/15 04:33:13;;;;;;;22.77;16.52;;;21.40;99.90;;;;;;5072536;28;20488;-73
2022/08/15 04:35:41;;;;;;;18.25;15.35;;;21.30;99.90;;;;;;5072603;28;20094;-73
2022/08/15 04:38:07;;;;;;;20.77;17.10;;;21.30;99.90;;;;;;5072213;28;20068;-75
2022/08/15 04:40:33;;;;;;;20.05;17.30;;;21.40;99.90;;;;;;5072397;28;20738;-73
2022/08/15 04:42:59;;;;;;;21.27;16.13;;;21.30;99.90;;;;;;5072385;28;20102;-73
2022/08/15 04:45:30;;;;;;;20.17;16.70;;;21.30;99.90;;;;;;5071926;28;20053;-72
2022/08/15 04:47:57;;;;;;;20.60;17.40;;;21.30;99.90;;;;;;5072197;28;20556;-73
2022/08/15 04:50:23;;;;;;;18.70;16.42;;;21.30;99.90;;;;;;5072343;28;20045;-73
2022/08/15 04:52:55;;;;;;;18.25;16.30;;;21.10;99.90;;;;;;5072061;28;20101;-72
2022/08/15 04:55:22;;;;;;;20.10;17.15;;;21.30;99.90;;;;;;5071959;28;20123;-73
2022/08/15 04:57:48;;;;;;;20.20;18.02;;;21.30;99.90;;;;;;5072233;28;20060;-72
2022/08/15 05:00:20;;;;;;;21.08;17.60;;;21.10;99.90;;;;;;5072104;28;20045;-73
2022/08/15 05:03:10;;;;;;;21.35;17.98;;;21.10;99.90;;;;;;5072169;28;20110;-73
2022/08/15 05:05:41;;;;;;;21.27;18.30;;;20.80;99.90;;;;;;5071686;28;20044;-73
2022/08/15 05:08:08;;;;;;;25.25;18.25;;;21.10;99.90;;;;;;5072173;28;20130;-73
2022/08/15 05:10:34;;;;;;;24.25;17.77;;;20.80;99.90;;;;;;5071097;28;20123;-72
2022/08/15 05:13:16;;;;;;;20.73;18.08;;;20.80;99.90;;;;;;5072054;28;20249;-72
2022/08/15 05:15:43;;;;;;;22.33;18.52;;;21.00;99.90;;;;;;5071883;28;20047;-72
2022/08/15 05:18:09;;;;;;;21.35;18.52;;;21.10;99.90;;;;;;5070413;28;20499;-73
2022/08/15 05:20:35;;;;;;;22.30;18.25;;;21.00;99.90;;;;;;5071733;28;20056;-72
2022/08/15 05:23:07;;;;;;;23.95;18.73;;;21.10;99.90;;;;;;5071988;28;20048;-72
2022/08/15 05:25:36;;;;;;;21.90;17.67;;;20.70;99.90;;;;;;5075184;28;20809;-73
2022/08/15 05:28:02;;;;;;;19.38;17.30;;;21.20;99.90;;;;;;5091948;28;20479;-71
2022/08/15 05:30:28;;;;;;;23.08;17.27;;;21.20;99.90;;;;;;5091733;28;20495;-71
2022/08/15 05:33:06;;;;;;;24.05;18.02;;;21.40;99.90;;;;;;5091510;28;20058;-72
2022/08/15 05:35:33;;;;;;;20.77;18.40;;;21.30;99.90;;;;;;5090745;28;20480;-73
2022/08/15 05:38:02;;;;;;;21.20;18.70;;;21.20;99.90;;;;;;5091829;28;20472;-72
2022/08/15 05:40:35;;;;;;;20.48;18.25;;;21.00;99.90;;;;;;5091777;28;20043;-72
2022/08/15 05:43:11;;;;;;;22.70;18.75;;;21.30;99.90;;;;;;5091774;28;20067;-72
2022/08/15 05:45:55;;;;;;;20.55;18.38;;;21.40;99.90;;;;;;5092184;28;20118;-72
2022/08/15 05:48:29;;;;;;;23.50;18.75;;;21.20;99.90;;;;;;5090794;28;20557;-72
2022/08/15 05:50:58;;;;;;;22.83;18.88;;;21.20;99.90;;;;;;5090437;28;20091;-72
2022/08/15 05:53:26;;;;;;;22.13;18.38;;;21.30;99.90;;;;;;5091723;28;20043;-72
2022/08/15 05:56:02;;;;;;;21.40;18.05;;;21.70;99.90;;;;;;5091535;28;20496;-72
2022/08/15 05:58:43;;;;;;;20.52;18.35;;;21.80;99.90;;;;;;5095174;28;20047;-72
2022/08/15 06:01:25;;;;;;;20.27;18.00;;;21.50;99.90;;;;;;5095799;28;20048;-72
2022/08/15 06:04:01;;;;;;;26.52;18.60;;;21.70;99.90;;;;;;5095389;28;20040;-72
2022/08/15 06:06:32;;;;;;;20.10;18.00;;;21.80;99.90;;;;;;5095926;28;20052;-70
2022/08/15 06:09:26;;;;;;;23.90;17.75;;;21.70;99.90;;;;;;5095715;28;20052;-72
2022/08/15 06:11:55;;;;;;;21.58;18.15;;;22.10;99.90;;;;;;5088633;28;20055;-74
2022/08/15 06:14:26;;;;;;;19.48;16.83;;;22.20;99.90;;;;;;5094539;28;20055;-74
2022/08/15 06:16:58;;;;;;;20.65;17.73;;;22.40;99.90;;;;;;5095672;28;20051;-74
2022/08/15 06:19:33;;;;;;;18.67;16.38;;;22.80;99.90;;;;;;5095268;28;20044;-74
2022/08/15 06:22:10;;;;;;;20.30;17.07;;;22.70;99.90;;;;;;5095486;28;20036;-73
2022/08/15 06:24:54;;;;;;;20.95;15.98;;;22.80;99.90;;;;;;5095382;28;20131;-74
2022/08/15 06:27:43;;;;;;;21.02;17.00;;;22.90;99.90;;;;;;5095313;28;20083;-73
2022/08/15 06:30:17;;;;;;;18.95;16.20;;;22.90;99.90;;;;;;5095038;28;20044;-73
2022/08/15 06:32:58;;;;;;;22.98;17.88;;;22.90;99.90;;;;;;5093785;28;20173;-74
2022/08/15 06:35:42;;;;;;;20.02;16.65;;;23.50;99.90;;;;;;5094957;28;20044;-73
2022/08/15 06:38:34;;;;;;;21.17;17.17;;;23.50;99.90;;;;;;5095254;28;20078;-74
2022/08/15 06:41:14;;;;;;;20.65;16.38;;;23.40;99.90;;;;;;5095064;28;20051;-74
2022/08/15 06:43:40;;;;;;;19.73;16.08;;;23.30;99.90;;;;;;5094861;28;20080;-74
2022/08/15 06:46:07;;;;;;;17.90;15.80;;;23.70;99.90;;;;;;5095319;28;20051;-74
2022/08/15 06:48:37;;;;;;;19.42;16.20;;;23.40;99.90;;;;;;5094676;28;20399;-74
2022/08/15 06:51:06;;;;;;;21.13;15.98;;;23.80;99.90;;;;;;5095006;28;20048;-74
2022/08/15 06:53:37;;;;;;;20.90;15.35;;;23.80;99.90;;;;;;5094769;28;20432;-74
2022/08/15 06:56:28;;;;;;;16.45;14.75;;;23.70;99.90;;;;;;5094580;28;20511;-73
2022/08/15 07:05:27;;;;;;;17.98;14.30;;;24.00;99.90;;;;;;5109691;27;20388;-72
2022/08/15 07:08:14;;;;;;;19.30;17.02;;;24.10;99.90;;;;;;5109761;28;20405;-72
2022/08/15 07:11:09;;;;;;;19.90;15.55;;;24.20;99.90;;;;;;5108338;28;20051;-72
2022/08/15 07:14:17;;;;;;;18.00;15.88;;;24.50;99.90;;;;;;5100061;28;20047;-72
2022/08/15 07:16:53;;;;;;;20.75;17.20;;;24.70;99.90;;;;;;5109079;28;20511;-72
2022/08/15 07:19:19;;;;;;;22.85;17.55;;;24.30;99.90;;;;;;5109376;28;20062;-73
2022/08/15 07:21:44;;;;;;;24.85;17.02;;;24.50;99.90;;;;;;5109518;28;20551;-72
2022/08/15 07:24:16;;;;;;;23.20;17.60;;;24.30;99.90;;;;;;5109308;28;20089;-73
2022/08/15 07:26:57;;;;;;;20.40;18.00;;;24.80;99.90;;;;;;5109264;28;20054;-72
2022/08/15 07:29:38;;;;;;;19.70;16.38;;;24.40;99.90;;;;;;5090935;28;20488;-72
2022/08/15 07:32:27;;;;;;;19.80;16.08;;;24.70;99.90;;;;;;5109023;28;20039;-72
2022/08/15 07:35:14;;;;;;;18.80;16.60;;;24.60;99.90;;;;;;5109247;28;20048;-73
2022/08/15 07:37:58;;;;;;;19.77;16.70;;;25.10;99.90;;;;;;5108918;28;20047;-72
2022/08/15 07:40:27;;;;;;;19.52;16.42;;;25.00;99.90;;;;;;5109452;28;20044;-72
2022/08/15 07:42:53;;;;;;;19.15;16.85;;;24.70;99.90;;;;;;5108012;28;20101;-72
2022/08/15 07:45:21;;;;;;;22.85;17.23;;;25.10;99.90;;;;;;5108722;28;20051;-73
2022/08/15 07:48:01;;;;;;;17.15;15.43;;;24.80;99.90;;;;;;5108983;28;20048;-72
2022/08/15 07:50:35;;;;;;;19.33;15.65;;;25.00;99.90;;;;;;5108810;28;20056;-71
2022/08/15 07:53:17;;;;;;;17.30;14.32;;;25.10;99.90;;;;;;5108911;28;20036;-72
2022/08/15 07:56:05;;;;;;;22.13;16.08;;;25.00;99.90;;;;;;5108878;28;20047;-68
2022/08/15 07:58:35;;;;;;;19.00;15.95;;;25.20;99.90;;;;;;5106959;28;20101;-72
2022/08/15 08:01:24;;;;;;;19.30;16.10;;;25.20;99.90;;;;;;5107328;28;20058;-71
2022/08/15 08:03:58;;;;;;;19.60;17.13;;;25.30;99.90;;;;;;5107195;28;20056;-72
2022/08/15 08:07:04;;;;;;;21.13;17.10;;;25.40;99.90;;;;;;5108478;28;20056;-72
2022/08/15 08:09:52;;;;;;;18.90;16.90;;;25.70;99.90;;;;;;5065379;28;20052;-70
2022/08/15 08:12:38;;;;;;;18.48;16.58;;;25.50;99.90;;;;;;5106469;28;20063;-72
2022/08/15 08:15:18;;;;;;;20.90;16.40;;;25.70;99.90;;;;;;5102284;28;20132;-72
2022/08/15 08:18:04;;;;;;;22.48;15.85;;;25.30;99.90;;;;;;5095050;28;20127;-72
2022/08/15 08:20:46;;;;;;;22.05;16.65;;;25.40;99.90;;;;;;5094736;28;20044;-69
2022/08/15 08:23:32;;;;;;;20.95;15.25;;;25.60;99.90;;;;;;5094649;28;20450;-73
2022/08/15 08:26:23;;;;;;;17.20;15.32;;;25.50;99.90;;;;;;5094628;28;20396;-69
2022/08/15 08:28:55;;;;;;;16.63;14.77;;;25.80;99.90;;;;;;5094334;28;20145;-73
2022/08/15 08:31:27;;;;;;;17.35;15.45;;;25.80;99.90;;;;;;5094635;28;20056;-73
2022/08/15 08:34:28;;;;;;;16.98;14.93;;;25.50;99.90;;;;;;5094383;28;20127;-73
2022/08/15 08:37:13;;;;;;;15.52;13.88;;;25.70;99.90;;;;;;5086540;28;20412;-73
2022/08/15 08:43:07;;;;;;;16.67;14.40;;;25.20;99.90;;;;;;5063561;28;20082;-73
2022/08/15 08:45:46;;;;;;;15.43;13.75;;;25.00;99.90;;;;;;5094251;28;20047;-73
2022/08/15 08:48:15;;;;;;;17.15;14.15;;;25.20;99.90;;;;;;5094282;28;20059;-72
2022/08/15 08:50:55;;;;;;;18.15;13.43;;;25.20;99.90;;;;;;5093987;28;20048;-72
2022/08/15 08:53:39;;;;;;;19.52;12.30;;;25.30;99.90;;;;;;5094159;28;20044;-73
2022/08/15 08:56:19;;;;;;;15.35;12.95;;;25.40;99.90;;;;;;5093164;28;20052;-72
2022/08/15 08:58:56;;;;;;;16.58;11.98;;;25.60;99.90;;;;;;5093726;28;20507;-72
2022/08/15 09:01:25;;;;;;;14.10;12.50;;;25.70;99.90;;;;;;5093830;28;20052;-71
2022/08/15 09:04:02;;;;;;;14.95;12.13;;;25.70;99.90;;;;;;5093502;28;20099;-73
2022/08/15 09:06:36;;;;;;;17.40;13.20;;;25.30;99.90;;;;;;5093860;28;20044;-73
2022/08/15 09:09:22;;;;;;;17.75;12.65;;;25.80;99.90;;;;;;5093868;28;20103;-74
2022/08/15 09:12:02;;;;;;;15.82;13.32;;;25.70;99.90;;;;;;5093341;28;20059;-73
2022/08/15 09:14:33;;;;;;;15.23;12.55;;;25.70;99.90;;;;;;5093843;28;20048;-72
2022/08/15 09:17:13;;;;;;;14.32;12.88;;;25.80;99.90;;;;;;5093593;28;20051;-73
2022/08/15 09:19:50;;;;;;;15.05;13.27;;;25.90;99.90;;;;;;5093490;28;20044;-73
2022/08/15 09:22:17;;;;;;;14.23;12.25;;;25.80;99.90;;;;;;5093490;28;20056;-72
2022/08/15 09:24:43;;;;;;;15.27;12.63;;;26.10;99.90;;;;;;5093423;28;20055;-73
2022/08/15 09:27:16;;;;;;;15.43;12.95;;;26.50;99.90;;;;;;5092311;28;20040;-73
2022/08/15 09:29:48;;;;;;;14.10;12.60;;;26.30;99.90;;;;;;5093450;28;20048;-73
2022/08/15 09:32:16;;;;;;;14.88;11.70;;;26.50;99.90;;;;;;5093589;28;20044;-73
2022/08/15 09:35:00;;;;;;;11.82;10.63;;;26.50;99.90;;;;;;5093376;28;20793;-73
2022/08/15 09:37:38;;;;;;;12.52;10.35;;;26.30;99.90;;;;;;5093193;28;20475;-73
2022/08/15 09:40:12;;;;;;;13.10;10.70;;;27.00;99.90;;;;;;5093307;28;20105;-73
2022/08/15 09:43:10;;;;;;;14.10;11.82;;;27.10;99.90;;;;;;5092909;28;20044;-73
2022/08/15 09:45:54;;;;;;;14.65;11.18;;;27.10;99.90;;;;;;5093253;28;20056;-73
2022/08/15 09:48:38;;;;;;;13.57;11.73;;;27.40;99.90;;;;;;5093146;28;20069;-74
2022/08/15 09:51:57;;;;;;;13.45;10.60;;;27.10;99.90;;;;;;5092931;28;20052;-73
2022/08/15 09:54:26;;;;;;;12.65;11.07;;;27.10;99.90;;;;;;5085231;28;20067;-73
2022/08/15 09:57:29;;;;;;;15.45;12.15;;;27.40;99.90;;;;;;5091535;28;20051;-73
2022/08/15 10:00:04;;;;;;;13.60;10.45;;;27.10;99.90;;;;;;5092732;28;20048;-73
2022/08/15 10:02:32;;;;;;;17.02;12.18;;;27.70;99.90;;;;;;5092951;28;20083;-73
2022/08/15 10:05:09;;;;;;;13.63;11.27;;;27.70;99.90;;;;;;5092400;28;20392;-73
2022/08/15 10:07:52;;;;;;;14.35;10.60;;;27.70;99.90;;;;;;5090361;28;20085;-72
2022/08/15 10:10:22;;;;;;;13.50;11.05;;;28.00;99.90;;;;;;5090337;28;20054;-66
2022/08/15 10:13:06;;;;;;;11.57;10.38;;;27.80;99.90;;;;;;5092285;28;20127;-77
2022/08/15 10:15:43;;;;;;;14.43;10.18;;;28.00;99.90;;;;;;5090241;28;20480;-75
2022/08/15 10:18:29;;;;;;;10.82;9.73;;;28.30;99.90;;;;;;5092056;28;20091;-78
2022/08/15 10:21:19;;;;;;;10.95;9.23;;;28.70;99.90;;;;;;5092109;28;20054;-70
2022/08/15 10:23:51;;;;;;;11.82;9.35;;;29.60;99.90;;;;;;5092076;28;20039;-73
2022/08/15 10:26:25;;;;;;;15.00;9.15;;;29.60;99.90;;;;;;5091768;28;20513;-71
2022/08/15 10:29:02;;;;;;;13.15;8.45;;;29.40;99.90;;;;;;5092195;28;20084;-70
2022/08/15 10:31:52;;;;;;;9.55;8.07;;;29.70;99.90;;;;;;5092390;28;20047;-74
2022/08/15 10:34:50;;;;;;;8.18;6.75;;;29.60;99.90;;;;;;5091983;28;20058;-73
2022/08/15 10:37:30;;;;;;;8.40;6.88;;;29.30;99.90;;;;;;5092165;28;20135;-76
2022/08/15 10:40:20;;;;;;;7.75;6.53;;;29.30;99.90;;;;;;5091141;28;20084;-75
2022/08/15 10:43:08;;;;;;;7.85;6.72;;;29.20;99.90;;;;;;5090743;28;20044;-70
2022/08/15 10:45:48;;;;;;;8.25;6.65;;;29.30;99.90;;;;;;5090751;28;20058;-74
2022/08/15 10:48:39;;;;;;;10.45;7.53;;;28.50;99.90;;;;;;5091850;28;20048;-76
2022/08/15 10:51:25;;;;;;;7.53;6.82;;;28.40;99.90;;;;;;5091782;28;20051;-71
2022/08/15 10:54:23;;;;;;;7.70;6.57;;;28.70;99.90;;;;;;5091054;28;20047;-77
2022/08/15 10:56:54;;;;;;;8.05;7.13;;;28.70;99.90;;;;;;5090750;28;20539;-72
2022/08/15 10:59:39;;;;;;;10.25;7.63;;;29.00;99.90;;;;;;5091652;28;20438;-72
2022/08/15 11:02:18;;;;;;;10.35;7.47;;;28.70;99.90;;;;;;5083551;28;20079;-72
2022/08/15 11:04:44;;;;;;;18.08;7.32;;;28.90;99.90;;;;;;5082129;28;20464;-67
2022/08/15 11:07:33;;;;;;;11.82;8.43;;;28.90;99.90;;;;;;5090414;28;20044;-77
2022/08/15 11:10:02;;;;;;;13.60;8.68;;;28.90;99.90;;;;;;5089871;28;20105;-77
2022/08/15 11:12:31;;;;;;;12.57;9.32;;;29.40;99.90;;;;;;5091366;28;20052;-74
2022/08/15 11:15:11;;;;;;;10.43;9.38;;;29.50;99.90;;;;;;5090070;28;20091;-79
2022/08/15 11:17:38;;;;;;;11.38;9.68;;;29.40;99.90;;;;;;5091145;28;20484;-78
2022/08/15 11:20:12;;;;;;;13.95;10.63;;;29.50;99.90;;;;;;5091541;28;20177;-74
2022/08/15 11:22:51;;;;;;;12.93;9.88;;;29.40;99.90;;;;;;5078557;28;20076;-71
2022/08/15 11:25:22;;;;;;;10.52;9.52;;;29.80;99.90;;;;;;5111372;28;20044;-70
2022/08/15 11:28:04;;;;;;;12.82;9.82;;;29.90;99.90;;;;;;5111962;28;20544;-71
2022/08/15 11:30:33;;;;;;;12.52;11.30;;;30.40;99.90;;;;;;5111685;28;20054;-70
2022/08/15 11:33:26;;;;;;;12.77;11.48;;;30.40;99.90;;;;;;5111933;28;20039;-72
2022/08/15 11:36:06;;;;;;;12.25;10.02;;;30.10;99.90;;;;;;5111991;28;20046;-76
2022/08/15 11:38:34;;;;;;;12.18;9.68;;;29.90;99.90;;;;;;5110497;28;20161;-73
2022/08/15 11:41:01;;;;;;;10.05;8.73;;;29.90;99.90;;;;;;5111854;28;20441;-72
2022/08/15 11:43:27;;;;;;;10.10;9.02;;;29.70;99.90;;;;;;5110252;28;20040;-71
2022/08/15 11:45:54;;;;;;;12.15;10.95;;;29.70;99.90;;;;;;5093603;28;20081;-73
2022/08/15 11:48:33;;;;;;;13.52;11.02;;;29.60;99.90;;;;;;5092474;28;20128;-70
2022/08/15 11:51:14;;;;;;;17.10;11.88;;;29.10;99.90;;;;;;5092701;28;20052;-70
2022/08/15 11:54:04;;;;;;;22.50;11.90;;;29.40;99.90;;;;;;5093041;28;20036;-71
2022/08/15 11:56:43;;;;;;;15.93;12.75;;;29.00;99.90;;;;;;5094345;28;20075;-68
2022/08/15 11:59:26;;;;;;;13.25;11.82;;;28.70;99.90;;;;;;5094526;28;20058;-69
2022/08/15 12:02:10;;;;;;;16.42;13.95;;;28.50;99.90;;;;;;5091815;28;20488;-70
2022/08/15 12:04:39;;;;;;;16.05;14.35;;;28.20;99.90;;;;;;5091679;28;20555;-70
2022/08/15 12:07:27;;;;;;;22.08;14.50;;;27.90;99.90;;;;;;5094606;28;20060;-70
2022/08/15 12:10:04;;;;;;;16.75;12.90;;;28.20;99.90;;;;;;5094960;28;20040;-69
2022/08/15 12:12:45;;;;;;;20.38;14.63;;;28.20;99.90;;;;;;5094845;28;20122;-69
2022/08/15 12:15:19;;;;;;;16.67;14.48;;;27.60;99.90;;;;;;5094806;28;20037;-70
2022/08/15 12:18:24;;;;;;;23.13;14.88;;;27.60;99.90;;;;;;5094989;28;20080;-70
2022/08/15 12:20:55;;;;;;;21.85;14.90;;;27.70;99.90;;;;;;5035054;28;20053;-69
2022/08/15 12:23:27;;;;;;;18.92;13.95;;;27.40;99.90;;;;;;5088360;28;20052;-70
2022/08/15 12:26:07;;;;;;;16.95;14.57;;;27.20;99.90;;;;;;5094832;28;20136;-71
2022/08/15 12:28:35;;;;;;;21.27;15.20;;;26.90;99.90;;;;;;5094610;28;20105;-69
2022/08/15 12:31:28;;;;;;;25.58;16.17;;;26.70;99.90;;;;;;5094482;28;20087;-68
2022/08/15 12:34:24;;;;;;;22.45;16.88;;;26.30;99.90;;;;;;5094449;28;20519;-71
2022/08/15 12:36:51;;;;;;;23.00;16.70;;;26.30;99.90;;;;;;5075129;28;20113;-69
2022/08/15 12:39:18;;;;;;;26.95;17.67;;;26.40;99.90;;;;;;5094337;28;20051;-72
2022/08/15 12:41:48;;;;;;;25.15;17.33;;;26.20;99.90;;;;;;5093302;28;20126;-71
2022/08/15 12:44:21;;;;;;;23.08;17.50;;;25.90;99.90;;;;;;5094113;28;20043;-71
2022/08/15 12:46:47;;;;;;;20.38;17.35;;;26.20;99.90;;;;;;5094467;28;20051;-70
2022/08/15 12:49:13;;;;;;;20.40;17.48;;;26.30;99.90;;;;;;5092863;28;20537;-71
2022/08/15 12:51:39;;;;;;;19.48;16.65;;;26.60;99.90;;;;;;5093243;28;20052;-71
2022/08/15 12:54:05;;;;;;;27.58;17.17;;;26.40;99.90;;;;;;5094049;28;20051;-71
2022/08/15 12:56:30;;;;;;;19.52;17.10;;;26.40;99.90;;;;;;5093990;28;20048;-70
2022/08/15 12:58:57;;;;;;;17.45;15.57;;;26.50;99.90;;;;;;5093694;28;20055;-70
2022/08/15 13:01:24;;;;;;;17.48;14.85;;;26.40;99.90;;;;;;5092656;28;20048;-70
2022/08/15 13:03:49;;;;;;;17.10;15.07;;;26.80;99.90;;;;;;5092215;28;20093;-70
2022/08/15 13:06:46;;;;;;;17.17;13.55;;;26.40;99.90;;;;;;5092451;28;20056;-70
2022/08/15 13:09:13;;;;;;;15.00;13.40;;;26.20;99.90;;;;;;5093910;28;20043;-70
2022/08/15 13:11:40;;;;;;;12.90;11.60;;;26.30;99.90;;;;;;5092302;28;20411;-70
2022/08/15 13:14:10;;;;;;;13.07;11.77;;;26.50;99.90;;;;;;5093890;28;20449;-70
2022/08/15 13:16:37;;;;;;;14.68;12.63;;;26.50;99.90;;;;;;5094016;28;20101;-70